Time;durP1;ratioP1;P1;durP2;ratioP2;P2;SDS_P1;SDS_P2;PMS_P1;PMS_P2;Temp;Humidity;BMP_temperature;BMP_pressure;BME280_temperature;BME280_humidity;BME280_pressure;Samples;Min_cycle;Max_cycle;Signal;HPM_P1;HPM_P2
2022/07/07 00:01:59;;;;;;;2.53;1.77;;;17.90;97.30;;;;;;5024662;28;20214;-72
2022/07/07 00:04:25;;;;;;;3.27;2.03;;;17.80;97.20;;;;;;5024889;28;20191;-71
2022/07/07 00:06:50;;;;;;;2.80;2.60;;;17.70;97.20;;;;;;5024222;28;20672;-71
2022/07/07 00:09:16;;;;;;;2.77;2.30;;;17.70;97.10;;;;;;5025262;28;20205;-71
2022/07/07 00:11:42;;;;;;;3.10;2.50;;;17.80;97.10;;;;;;5025092;28;20325;-71
2022/07/07 00:14:08;;;;;;;2.03;1.93;;;17.80;96.90;;;;;;5024754;28;20187;-70
2022/07/07 00:16:35;;;;;;;4.30;2.33;;;17.70;97.20;;;;;;5024589;28;20178;-71
2022/07/07 00:19:01;;;;;;;3.00;2.53;;;17.70;97.10;;;;;;5022747;28;20421;-70
2022/07/07 00:21:27;;;;;;;4.17;2.63;;;17.80;97.00;;;;;;5024360;28;20471;-70
2022/07/07 00:23:53;;;;;;;5.30;2.50;;;17.80;96.90;;;;;;5024508;28;20510;-71
2022/07/07 00:26:19;;;;;;;3.80;2.20;;;17.70;96.80;;;;;;5024786;28;20453;-71
2022/07/07 00:28:45;;;;;;;4.00;2.87;;;17.80;97.10;;;;;;5024220;28;20195;-71
2022/07/07 00:31:10;;;;;;;4.73;2.50;;;17.90;97.10;;;;;;5024438;28;20203;-71
2022/07/07 00:33:36;;;;;;;3.40;1.97;;;18.00;96.50;;;;;;5023704;28;20609;-70
2022/07/07 00:36:01;;;;;;;3.70;2.40;;;18.10;96.20;;;;;;5024452;28;20191;-71
2022/07/07 00:38:27;;;;;;;2.97;2.60;;;18.20;96.30;;;;;;5024187;28;20218;-70
2022/07/07 00:40:53;;;;;;;2.63;2.43;;;18.00;96.30;;;;;;5024255;28;20198;-71
2022/07/07 00:43:20;;;;;;;3.00;2.73;;;18.00;96.30;;;;;;5024150;28;20658;-72
2022/07/07 00:45:47;;;;;;;2.73;2.40;;;17.90;96.60;;;;;;5023382;28;20607;-71
2022/07/07 00:48:13;;;;;;;3.03;2.60;;;18.00;96.20;;;;;;5023843;28;20787;-71
2022/07/07 00:50:39;;;;;;;3.50;2.70;;;18.00;96.10;;;;;;5023851;28;20839;-70
2022/07/07 00:53:04;;;;;;;2.67;2.47;;;18.00;96.30;;;;;;5024244;28;20413;-72
2022/07/07 00:55:30;;;;;;;2.57;2.30;;;18.10;96.20;;;;;;5023976;28;20739;-70
2022/07/07 00:57:56;;;;;;;2.37;2.17;;;18.10;96.20;;;;;;5024553;28;20195;-71
2022/07/07 01:00:22;;;;;;;3.67;2.70;;;18.00;96.30;;;;;;5023957;28;20454;-71
2022/07/07 01:02:47;;;;;;;3.30;2.40;;;18.00;96.50;;;;;;5023768;28;20197;-71
2022/07/07 01:05:13;;;;;;;2.90;2.60;;;18.10;96.40;;;;;;5024018;28;20195;-71
2022/07/07 01:07:39;;;;;;;2.97;2.77;;;18.10;96.70;;;;;;5023877;28;20768;-71
2022/07/07 01:10:06;;;;;;;3.70;2.70;;;18.10;96.50;;;;;;5023841;28;20217;-70
2022/07/07 01:12:37;;;;;;;2.70;2.50;;;18.10;96.50;;;;;;5023814;28;20414;-70
2022/07/07 01:15:04;;;;;;;3.17;2.87;;;18.10;96.60;;;;;;5023688;28;20437;-71
2022/07/07 01:17:30;;;;;;;6.23;2.70;;;18.10;96.60;;;;;;5023423;28;20426;-70
2022/07/07 01:19:56;;;;;;;3.17;2.60;;;18.00;96.70;;;;;;5023630;28;20428;-71
2022/07/07 01:22:26;;;;;;;2.87;2.63;;;18.00;96.90;;;;;;5024065;28;20194;-70
2022/07/07 01:24:51;;;;;;;3.00;2.70;;;18.10;96.60;;;;;;5023448;28;20418;-70
2022/07/07 01:27:19;;;;;;;3.23;2.87;;;18.20;96.40;;;;;;5023801;28;20990;-71
2022/07/07 01:29:56;;;;;;;3.07;2.50;;;18.20;96.50;;;;;;5023588;28;20683;-71
2022/07/07 01:32:23;;;;;;;3.63;2.90;;;18.20;96.60;;;;;;5023277;28;20865;-71
2022/07/07 01:34:49;;;;;;;2.97;2.60;;;18.20;96.40;;;;;;5023552;28;20418;-70
2022/07/07 01:37:16;;;;;;;3.13;2.83;;;18.30;96.20;;;;;;5023752;28;20421;-70
2022/07/07 01:39:42;;;;;;;3.53;2.73;;;18.30;96.10;;;;;;5023316;28;20418;-71
2022/07/07 01:42:09;;;;;;;4.40;2.80;;;18.40;96.30;;;;;;5023828;28;20448;-71
2022/07/07 01:44:38;;;;;;;4.27;2.80;;;18.40;96.10;;;;;;5023362;28;20422;-71
2022/07/07 01:47:05;;;;;;;2.80;2.43;;;18.40;96.20;;;;;;5023361;28;20417;-70
2022/07/07 01:49:31;;;;;;;4.77;2.40;;;18.40;96.10;;;;;;5023106;28;20512;-71
2022/07/07 01:51:58;;;;;;;2.90;2.70;;;18.40;96.10;;;;;;5023366;28;20426;-70
2022/07/07 01:54:25;;;;;;;3.23;2.80;;;18.40;96.40;;;;;;5023262;28;20424;-70
2022/07/07 01:56:51;;;;;;;3.00;2.50;;;18.30;96.30;;;;;;5026016;28;20426;-71
2022/07/07 01:59:17;;;;;;;2.50;2.30;;;18.20;96.70;;;;;;5027187;28;20483;-72
2022/07/07 02:01:43;;;;;;;3.77;2.70;;;18.30;96.70;;;;;;5026976;28;20304;-69
2022/07/07 02:04:09;;;;;;;2.73;2.50;;;18.30;96.40;;;;;;5026816;28;20199;-71
2022/07/07 02:06:34;;;;;;;2.80;2.60;;;18.40;96.40;;;;;;5026893;28;20467;-70
2022/07/07 02:09:00;;;;;;;2.77;2.57;;;18.30;96.40;;;;;;5027067;28;20210;-70
2022/07/07 02:11:28;;;;;;;3.43;2.80;;;18.30;96.20;;;;;;5027126;28;20347;-70
2022/07/07 02:13:54;;;;;;;4.33;2.40;;;18.30;96.30;;;;;;5026986;28;20793;-71
2022/07/07 02:16:21;;;;;;;3.57;3.03;;;18.30;96.20;;;;;;5027012;28;20921;-70
2022/07/07 02:18:48;;;;;;;2.60;2.30;;;18.40;96.50;;;;;;5026277;28;20456;-71
2022/07/07 02:21:15;;;;;;;2.53;2.30;;;18.30;96.50;;;;;;5025357;28;20554;-71
2022/07/07 02:23:44;;;;;;;3.27;2.97;;;18.20;96.40;;;;;;5026825;28;20420;-72
2022/07/07 02:26:10;;;;;;;2.97;2.60;;;18.30;96.90;;;;;;5026675;28;20780;-72
2022/07/07 02:28:36;;;;;;;3.27;2.03;;;18.30;96.80;;;;;;5026495;28;20421;-70
2022/07/07 02:31:01;;;;;;;2.87;2.50;;;18.30;96.90;;;;;;5026576;28;20438;-70
2022/07/07 02:33:27;;;;;;;3.30;2.20;;;18.30;96.80;;;;;;5025843;28;20183;-71
2022/07/07 02:35:54;;;;;;;2.87;2.67;;;18.30;97.10;;;;;;5026715;28;20633;-71
2022/07/07 02:38:22;;;;;;;3.43;2.70;;;18.30;97.30;;;;;;5026300;28;20406;-71
2022/07/07 02:40:48;;;;;;;3.03;2.50;;;18.30;97.10;;;;;;5024823;28;20437;-70
2022/07/07 02:43:14;;;;;;;3.00;2.57;;;18.30;97.20;;;;;;5026649;28;20418;-71
2022/07/07 02:45:50;;;;;;;2.27;2.07;;;18.30;97.10;;;;;;5026262;28;20595;-71
2022/07/07 02:48:19;;;;;;;4.97;2.67;;;18.30;97.10;;;;;;5026105;28;20190;-71
2022/07/07 02:50:45;;;;;;;3.33;2.40;;;18.30;97.10;;;;;;5026146;28;20464;-70
2022/07/07 02:53:11;;;;;;;4.07;2.90;;;18.30;97.50;;;;;;5025963;28;20414;-70
2022/07/07 02:55:37;;;;;;;2.70;2.50;;;18.30;97.30;;;;;;5026379;28;20268;-72
2022/07/07 02:58:05;;;;;;;3.33;2.90;;;18.30;97.50;;;;;;5026118;28;20417;-70
2022/07/07 03:00:34;;;;;;;3.10;2.13;;;18.30;97.60;;;;;;5025871;28;20819;-71
2022/07/07 03:03:03;;;;;;;2.53;2.33;;;18.30;97.40;;;;;;5025602;28;20780;-69
2022/07/07 03:05:30;;;;;;;7.83;2.70;;;18.30;97.50;;;;;;5025778;28;20974;-70
2022/07/07 03:07:56;;;;;;;3.10;2.20;;;18.30;97.60;;;;;;5025412;28;20421;-71
2022/07/07 03:10:22;;;;;;;2.60;1.93;;;18.30;97.80;;;;;;5025704;28;20856;-70
2022/07/07 03:12:48;;;;;;;3.93;1.83;;;18.30;97.60;;;;;;5026323;28;20414;-71
2022/07/07 03:15:14;;;;;;;4.17;2.00;;;18.40;97.40;;;;;;5025759;28;20430;-70
2022/07/07 03:17:45;;;;;;;3.30;1.97;;;18.30;97.60;;;;;;5025465;28;20233;-71
2022/07/07 03:20:11;;;;;;;2.70;1.77;;;18.30;97.50;;;;;;5025223;28;20878;-72
2022/07/07 03:22:38;;;;;;;2.87;1.87;;;18.30;97.40;;;;;;5025736;28;20488;-71
2022/07/07 03:25:05;;;;;;;2.27;1.97;;;18.40;97.40;;;;;;5025815;28;20552;-70
2022/07/07 03:27:30;;;;;;;6.07;2.77;;;18.30;97.20;;;;;;5055184;22;20489;-71
2022/07/07 03:29:57;;;;;;;3.20;1.77;;;18.20;97.50;;;;;;5041078;28;20512;-71
2022/07/07 03:32:22;;;;;;;3.53;2.27;;;18.20;97.20;;;;;;5014179;28;20317;-71
2022/07/07 03:34:48;;;;;;;4.17;2.40;;;18.20;97.50;;;;;;5027617;28;20500;-71
2022/07/07 03:37:13;;;;;;;2.33;1.80;;;18.30;97.30;;;;;;5037670;28;20199;-73
2022/07/07 03:39:39;;;;;;;2.47;1.90;;;18.30;97.30;;;;;;5033310;28;20182;-74
2022/07/07 03:42:05;;;;;;;7.23;2.13;;;18.40;97.70;;;;;;5033841;28;20186;-72
2022/07/07 03:44:31;;;;;;;5.03;2.30;;;18.50;97.40;;;;;;5044409;28;20186;-72
2022/07/07 03:46:56;;;;;;;2.17;1.80;;;18.40;96.60;;;;;;5044354;28;20253;-71
2022/07/07 03:49:22;;;;;;;3.07;1.37;;;18.50;97.10;;;;;;5042852;28;20203;-71
2022/07/07 03:51:47;;;;;;;1.93;1.50;;;18.60;96.90;;;;;;5038677;28;20273;-70
2022/07/07 03:54:14;;;;;;;2.87;1.70;;;18.50;96.30;;;;;;5044750;28;20182;-74
2022/07/07 03:56:40;;;;;;;5.13;2.00;;;18.50;96.40;;;;;;5037482;28;20198;-71
2022/07/07 03:59:06;;;;;;;3.23;2.03;;;18.50;96.20;;;;;;5024278;28;20517;-71
2022/07/07 04:01:31;;;;;;;4.10;2.00;;;18.30;96.50;;;;;;5025392;28;20416;-71
2022/07/07 04:03:57;;;;;;;3.60;2.00;;;18.40;96.60;;;;;;5043219;28;20555;-72
2022/07/07 04:06:22;;;;;;;2.13;1.83;;;18.60;96.60;;;;;;5041127;28;20648;-73
2022/07/07 04:08:49;;;;;;;3.93;2.00;;;18.80;96.70;;;;;;5032455;28;20199;-72
2022/07/07 04:11:15;;;;;;;4.40;2.20;;;18.70;96.50;;;;;;5043904;28;20190;-73
2022/07/07 04:13:41;;;;;;;2.60;1.67;;;18.60;96.40;;;;;;5038753;28;20413;-72
2022/07/07 04:16:07;;;;;;;2.07;1.90;;;18.50;96.30;;;;;;5026811;28;20428;-72
2022/07/07 04:18:33;;;;;;;3.30;2.00;;;18.50;96.40;;;;;;5038571;28;20323;-72
2022/07/07 04:20:59;;;;;;;1.87;1.67;;;18.40;96.50;;;;;;5035116;28;20413;-71
2022/07/07 04:23:24;;;;;;;6.20;2.00;;;18.60;96.70;;;;;;5025534;28;20414;-74
2022/07/07 04:25:50;;;;;;;2.70;2.10;;;18.80;96.60;;;;;;5041214;28;20246;-71
2022/07/07 04:28:15;;;;;;;2.53;2.13;;;18.70;96.20;;;;;;5037558;28;20178;-72
2022/07/07 04:30:41;;;;;;;2.07;1.70;;;18.70;96.10;;;;;;5027471;28;20187;-73
2022/07/07 04:33:07;;;;;;;3.03;1.90;;;18.70;96.30;;;;;;5042227;28;20269;-73
2022/07/07 04:35:33;;;;;;;4.30;2.10;;;18.50;96.30;;;;;;5033565;28;20244;-71
2022/07/07 04:37:58;;;;;;;4.57;2.23;;;18.60;96.50;;;;;;5035475;28;20199;-71
2022/07/07 04:40:24;;;;;;;2.20;2.00;;;18.60;96.50;;;;;;5028730;28;20646;-72
2022/07/07 04:42:49;;;;;;;4.10;2.13;;;18.60;96.60;;;;;;5034270;28;20211;-71
2022/07/07 04:45:15;;;;;;;2.00;1.80;;;18.50;96.80;;;;;;5032422;28;20182;-71
2022/07/07 04:47:42;;;;;;;2.33;2.13;;;18.60;97.20;;;;;;5038143;28;20203;-72
2022/07/07 04:50:12;;;;;;;4.37;1.50;;;18.70;96.50;;;;;;5023470;28;20214;-73
2022/07/07 04:52:39;;;;;;;2.20;1.73;;;18.80;96.20;;;;;;5038757;28;20595;-72
2022/07/07 04:55:05;;;;;;;2.20;1.50;;;18.80;96.30;;;;;;5043508;28;20409;-71
2022/07/07 04:57:31;;;;;;;2.80;1.60;;;18.70;96.30;;;;;;5034772;28;20875;-69
2022/07/07 04:59:56;;;;;;;3.70;1.83;;;18.70;96.60;;;;;;5023220;28;20418;-72
2022/07/07 05:02:22;;;;;;;4.20;2.50;;;18.80;96.90;;;;;;5033536;28;20215;-71
2022/07/07 05:04:49;;;;;;;1.83;1.57;;;18.80;96.60;;;;;;5034742;28;20201;-71
2022/07/07 05:07:15;;;;;;;4.83;1.50;;;18.50;96.50;;;;;;5035636;28;20233;-70
2022/07/07 05:09:40;;;;;;;2.10;1.90;;;18.50;96.80;;;;;;5037236;28;20467;-71
2022/07/07 05:12:06;;;;;;;2.77;1.87;;;18.60;96.50;;;;;;5042095;28;20918;-71
2022/07/07 05:14:32;;;;;;;2.37;2.00;;;18.60;97.10;;;;;;5027227;28;20175;-71
2022/07/07 05:16:59;;;;;;;2.00;1.60;;;18.70;96.90;;;;;;5043039;28;20285;-71
2022/07/07 05:19:25;;;;;;;2.20;1.73;;;18.70;97.20;;;;;;5038118;28;20179;-71
2022/07/07 05:21:51;;;;;;;4.67;2.20;;;18.50;97.00;;;;;;5023226;28;20422;-71
2022/07/07 05:24:16;;;;;;;2.57;2.00;;;18.70;96.90;;;;;;5022663;28;20722;-71
2022/07/07 05:26:42;;;;;;;3.40;2.13;;;18.80;97.30;;;;;;5022774;28;20207;-70
2022/07/07 05:29:07;;;;;;;2.80;1.57;;;18.90;96.80;;;;;;5022747;28;20203;-68
2022/07/07 05:31:33;;;;;;;4.23;2.50;;;18.80;96.20;;;;;;5025226;28;20689;-69
2022/07/07 05:33:58;;;;;;;2.40;2.20;;;18.90;97.00;;;;;;5026949;28;20179;-69
2022/07/07 05:36:24;;;;;;;3.53;2.10;;;19.00;97.30;;;;;;5027061;28;20203;-70
2022/07/07 05:38:50;;;;;;;2.60;1.70;;;19.00;96.40;;;;;;5025664;28;20279;-72
2022/07/07 05:41:16;;;;;;;3.20;1.87;;;19.10;96.80;;;;;;5008920;28;20295;-69
2022/07/07 05:43:42;;;;;;;2.27;2.07;;;19.10;97.00;;;;;;5026709;28;20417;-70
2022/07/07 05:46:07;;;;;;;2.40;1.60;;;19.10;96.60;;;;;;5026760;28;20210;-70
2022/07/07 05:48:33;;;;;;;2.13;1.40;;;19.40;96.70;;;;;;5008834;28;20187;-70
2022/07/07 05:50:58;;;;;;;2.80;1.80;;;19.60;96.90;;;;;;5026429;28;20194;-72
2022/07/07 05:53:24;;;;;;;2.40;1.90;;;19.70;96.90;;;;;;5026131;28;20217;-71
2022/07/07 05:55:50;;;;;;;7.03;2.10;;;19.70;96.50;;;;;;5039586;28;20182;-71
2022/07/07 05:58:16;;;;;;;2.23;2.03;;;19.80;95.90;;;;;;5037626;28;20186;-71
2022/07/07 06:00:41;;;;;;;2.63;1.80;;;19.70;96.00;;;;;;5028372;28;20183;-70
2022/07/07 06:03:07;;;;;;;2.60;1.87;;;19.90;96.50;;;;;;5047977;28;20939;-69
2022/07/07 06:05:32;;;;;;;2.47;1.60;;;20.00;95.30;;;;;;5039753;28;20175;-69
2022/07/07 06:07:58;;;;;;;3.27;2.37;;;20.00;95.20;;;;;;5026545;28;20211;-74
2022/07/07 06:10:24;;;;;;;3.47;2.00;;;20.00;95.10;;;;;;5042395;28;20614;-69
2022/07/07 06:12:49;;;;;;;2.83;2.23;;;20.00;95.20;;;;;;5045871;28;20206;-69
2022/07/07 06:15:17;;;;;;;2.77;1.80;;;20.00;95.20;;;;;;5037760;28;20260;-72
2022/07/07 06:17:43;;;;;;;2.90;1.90;;;20.00;94.90;;;;;;5040229;28;20198;-68
2022/07/07 06:20:09;;;;;;;2.83;2.00;;;20.20;94.90;;;;;;5037501;28;20483;-70
2022/07/07 06:22:35;;;;;;;2.63;1.73;;;20.30;94.70;;;;;;5032023;28;20235;-68
2022/07/07 06:25:01;;;;;;;4.83;2.33;;;20.40;94.30;;;;;;5025873;28;20517;-69
2022/07/07 06:27:26;;;;;;;3.57;1.67;;;20.40;94.30;;;;;;5007867;28;20484;-70
2022/07/07 06:29:55;;;;;;;3.23;1.60;;;20.50;94.50;;;;;;5008067;28;20203;-70
2022/07/07 06:32:21;;;;;;;1.93;1.73;;;20.60;93.90;;;;;;5026201;28;20201;-71
2022/07/07 06:34:47;;;;;;;4.67;2.07;;;20.70;94.50;;;;;;5043517;28;20416;-72
2022/07/07 06:37:12;;;;;;;3.17;1.63;;;20.80;93.80;;;;;;5045564;28;20803;-73
2022/07/07 06:39:38;;;;;;;5.20;2.00;;;20.70;94.70;;;;;;5029833;28;20187;-70
2022/07/07 06:42:04;;;;;;;4.20;2.00;;;20.60;94.10;;;;;;5024545;28;20211;-70
2022/07/07 06:44:32;;;;;;;3.23;1.77;;;20.70;94.40;;;;;;5044574;28;20179;-70
2022/07/07 06:46:59;;;;;;;2.60;1.83;;;20.80;94.00;;;;;;5027974;28;20589;-73
2022/07/07 06:49:28;;;;;;;6.33;2.60;;;21.00;94.90;;;;;;5029169;28;20463;-72
2022/07/07 06:51:55;;;;;;;4.50;1.93;;;21.10;94.00;;;;;;5045461;28;20417;-72
2022/07/07 06:54:20;;;;;;;5.60;2.13;;;20.80;93.90;;;;;;5044961;28;20428;-70
2022/07/07 06:56:46;;;;;;;5.70;1.90;;;20.90;94.00;;;;;;5045516;28;20428;-71
2022/07/07 06:59:12;;;;;;;3.33;2.10;;;21.10;94.50;;;;;;5045374;28;20186;-71
2022/07/07 07:01:38;;;;;;;3.90;2.60;;;21.00;93.80;;;;;;5040391;28;20780;-70
2022/07/07 07:04:05;;;;;;;3.63;2.20;;;20.80;93.60;;;;;;5042867;28;20277;-67
2022/07/07 07:06:30;;;;;;;7.73;2.07;;;20.90;93.90;;;;;;5039414;28;20463;-70
2022/07/07 07:08:56;;;;;;;2.63;2.27;;;21.10;94.30;;;;;;5035154;28;20965;-72
2022/07/07 07:11:22;;;;;;;2.73;2.53;;;21.30;93.70;;;;;;5025347;28;20231;-71
2022/07/07 07:13:49;;;;;;;2.27;2.00;;;21.60;93.10;;;;;;5025190;28;20853;-70
2022/07/07 07:16:18;;;;;;;2.60;1.73;;;22.00;93.10;;;;;;5025274;28;20528;-68
2022/07/07 07:18:44;;;;;;;4.17;2.03;;;22.20;92.40;;;;;;5025439;28;20790;-70
2022/07/07 07:21:09;;;;;;;2.10;1.87;;;22.20;92.80;;;;;;5024886;28;20410;-71
2022/07/07 07:23:37;;;;;;;3.63;2.17;;;22.30;92.60;;;;;;5025076;28;20391;-71
2022/07/07 07:26:03;;;;;;;3.97;2.60;;;22.50;92.10;;;;;;5007045;28;20931;-69
2022/07/07 07:28:29;;;;;;;2.70;2.20;;;22.30;92.40;;;;;;5029186;28;20503;-69
2022/07/07 07:30:54;;;;;;;3.53;1.63;;;22.20;93.60;;;;;;5044888;28;20456;-69
2022/07/07 07:33:20;;;;;;;2.43;2.03;;;22.10;93.30;;;;;;5036683;28;20488;-71
2022/07/07 07:35:46;;;;;;;3.50;2.17;;;22.10;92.60;;;;;;5025272;28;20220;-69
2022/07/07 07:38:12;;;;;;;4.27;2.20;;;22.20;92.60;;;;;;5024584;28;20661;-69
2022/07/07 07:40:37;;;;;;;3.43;1.87;;;22.10;92.60;;;;;;5024802;28;20183;-69
2022/07/07 07:43:03;;;;;;;4.00;2.20;;;22.20;93.00;;;;;;5024878;28;20784;-69
2022/07/07 07:45:28;;;;;;;6.40;2.80;;;22.40;93.00;;;;;;5032463;28;20178;-70
2022/07/07 07:47:56;;;;;;;4.57;1.80;;;22.40;93.20;;;;;;5037030;28;20290;-71
2022/07/07 07:50:22;;;;;;;5.47;2.93;;;22.30;92.70;;;;;;5044325;28;20401;-69
2022/07/07 07:52:49;;;;;;;3.17;2.20;;;22.30;92.90;;;;;;5044482;28;20412;-70
2022/07/07 07:55:17;;;;;;;5.37;2.20;;;22.50;92.80;;;;;;5029041;28;20413;-71
2022/07/07 07:57:43;;;;;;;3.90;2.70;;;22.50;93.40;;;;;;5024342;28;20479;-74
2022/07/07 08:00:11;;;;;;;5.73;2.37;;;22.30;93.30;;;;;;5032769;28;20421;-69
2022/07/07 08:02:37;;;;;;;6.90;2.50;;;21.90;93.60;;;;;;5044719;28;20759;-69
2022/07/07 08:05:03;;;;;;;3.20;2.37;;;21.70;93.90;;;;;;5044587;28;20416;-71
2022/07/07 08:07:30;;;;;;;2.50;2.30;;;21.50;94.20;;;;;;5042032;28;20438;-71
2022/07/07 08:09:55;;;;;;;3.60;2.40;;;21.30;94.10;;;;;;5029196;28;20556;-69
2022/07/07 08:12:21;;;;;;;3.30;2.70;;;21.20;94.50;;;;;;5024607;28;20446;-72
2022/07/07 08:14:47;;;;;;;2.40;2.20;;;21.10;94.60;;;;;;5023870;28;20179;-73
2022/07/07 08:17:12;;;;;;;3.43;2.60;;;21.20;94.60;;;;;;5024074;28;20244;-71
2022/07/07 08:19:38;;;;;;;3.33;2.37;;;21.20;94.60;;;;;;5036272;28;20235;-70
2022/07/07 08:22:04;;;;;;;6.67;2.50;;;21.10;94.70;;;;;;5043738;28;20186;-70
2022/07/07 08:24:29;;;;;;;6.33;2.93;;;21.20;94.60;;;;;;5043401;28;20185;-70
2022/07/07 08:26:55;;;;;;;3.63;2.73;;;21.40;94.70;;;;;;5040922;28;20242;-70
2022/07/07 08:29:20;;;;;;;4.70;2.80;;;21.40;95.20;;;;;;5024010;28;20199;-71
2022/07/07 08:31:46;;;;;;;4.43;3.00;;;21.50;95.00;;;;;;5025670;28;20183;-70
2022/07/07 08:34:12;;;;;;;3.60;2.30;;;21.70;95.40;;;;;;5040899;28;20233;-74
2022/07/07 08:36:37;;;;;;;2.83;2.60;;;21.60;95.60;;;;;;5041726;28;20198;-74
2022/07/07 08:39:03;;;;;;;4.40;2.63;;;21.60;95.50;;;;;;5024054;28;20177;-71
2022/07/07 08:41:29;;;;;;;4.20;3.57;;;21.50;95.50;;;;;;5031639;28;20175;-72
2022/07/07 08:43:55;;;;;;;5.07;2.93;;;21.40;95.60;;;;;;5034690;28;20183;-72
2022/07/07 08:46:22;;;;;;;3.50;2.87;;;21.30;95.80;;;;;;5035146;28;20924;-70
2022/07/07 08:48:47;;;;;;;3.47;3.17;;;21.50;95.80;;;;;;5033469;28;20417;-72
2022/07/07 08:51:15;;;;;;;4.10;2.80;;;21.70;95.80;;;;;;5029018;28;20426;-71
2022/07/07 08:53:44;;;;;;;4.23;2.83;;;21.90;95.70;;;;;;5026363;28;20544;-70
2022/07/07 08:56:10;;;;;;;5.50;3.43;;;21.80;95.50;;;;;;5039342;28;20455;-71
2022/07/07 08:58:36;;;;;;;11.10;3.10;;;21.90;95.90;;;;;;5039580;28;20886;-72
2022/07/07 09:01:03;;;;;;;4.00;3.07;;;21.80;95.90;;;;;;5032495;28;20179;-71
2022/07/07 09:03:29;;;;;;;3.43;2.93;;;21.60;96.30;;;;;;5044506;28;20428;-72
2022/07/07 09:05:57;;;;;;;3.67;3.30;;;21.70;96.60;;;;;;5021994;28;20436;-72
2022/07/07 09:08:24;;;;;;;4.67;3.67;;;21.60;96.90;;;;;;5037098;28;20256;-71
2022/07/07 09:10:51;;;;;;;3.97;3.67;;;21.70;97.60;;;;;;5011422;28;20994;-71
2022/07/07 09:13:31;;;;;;;4.17;3.77;;;21.90;97.50;;;;;;5021356;28;20532;-70
2022/07/07 09:16:05;;;;;;;4.90;3.50;;;22.00;98.00;;;;;;5014698;28;20405;-72
2022/07/07 09:18:34;;;;;;;4.33;3.27;;;22.20;96.90;;;;;;5029959;28;20414;-70
2022/07/07 09:21:02;;;;;;;4.17;3.77;;;22.30;97.00;;;;;;5019336;28;20910;-72
2022/07/07 09:23:28;;;;;;;8.10;4.00;;;22.60;96.70;;;;;;5025159;28;20471;-72
2022/07/07 09:25:55;;;;;;;5.23;4.17;;;22.60;96.60;;;;;;5043207;28;20476;-72
2022/07/07 09:28:20;;;;;;;5.70;3.20;;;22.40;96.60;;;;;;5039610;22;20848;-70
2022/07/07 09:30:48;;;;;;;3.70;2.80;;;22.30;97.30;;;;;;5023589;28;20454;-71
2022/07/07 09:33:18;;;;;;;4.10;2.80;;;22.00;97.60;;;;;;5023257;28;20183;-70
2022/07/07 09:38:31;;;;;;;3.87;2.93;;;21.90;98.30;;;;;;5043432;28;20427;-70
2022/07/07 09:41:08;;;;;;;2.80;2.50;;;21.60;98.50;;;;;;5043531;28;20413;-70
2022/07/07 09:43:34;;;;;;;2.37;2.17;;;21.60;99.00;;;;;;5042841;28;20409;-70
2022/07/07 09:46:10;;;;;;;3.10;2.37;;;21.60;99.60;;;;;;5043169;28;20674;-71
2022/07/07 09:48:38;;;;;;;2.73;2.53;;;21.60;99.40;;;;;;5043174;28;20436;-70
2022/07/07 09:51:27;;;;;;;3.83;2.07;;;21.40;99.50;;;;;;5043530;28;20512;-71
2022/07/07 09:54:00;;;;;;;3.13;2.17;;;21.20;99.90;;;;;;5031966;28;20406;-69
2022/07/07 09:56:32;;;;;;;3.90;2.13;;;21.20;99.90;;;;;;5023154;28;20914;-71
2022/07/07 09:58:59;;;;;;;2.80;2.43;;;21.00;99.90;;;;;;5022899;28;20416;-70
2022/07/07 10:01:27;;;;;;;3.20;2.33;;;21.00;99.90;;;;;;5023440;28;20493;-70
2022/07/07 10:03:58;;;;;;;4.57;2.53;;;21.10;99.90;;;;;;5023465;28;20871;-70
2022/07/07 10:06:26;;;;;;;5.57;2.03;;;21.20;99.90;;;;;;5005694;28;20492;-70
2022/07/07 10:09:03;;;;;;;3.47;2.33;;;21.30;99.90;;;;;;5022703;28;20472;-71
2022/07/07 10:11:46;;;;;;;2.93;2.20;;;21.40;99.90;;;;;;5023053;28;20417;-70
2022/07/07 10:14:14;;;;;;;2.50;2.30;;;21.60;99.90;;;;;;5023521;28;20880;-70
2022/07/07 10:16:42;;;;;;;2.90;2.27;;;21.60;99.90;;;;;;5023867;28;20760;-70
2022/07/07 10:19:10;;;;;;;3.20;2.20;;;21.60;99.90;;;;;;5026909;28;20414;-71
2022/07/07 10:21:37;;;;;;;3.03;1.90;;;21.70;99.90;;;;;;5027061;28;20925;-71
2022/07/07 10:24:05;;;;;;;2.93;2.47;;;21.80;99.90;;;;;;5026609;28;20421;-71
2022/07/07 10:26:51;;;;;;;3.50;2.53;;;21.90;99.90;;;;;;5026549;28;20771;-71
2022/07/07 10:29:35;;;;;;;2.80;2.50;;;22.20;99.90;;;;;;5026501;28;20457;-70
2022/07/07 10:32:01;;;;;;;3.10;2.80;;;22.70;99.50;;;;;;5026935;28;20406;-71
2022/07/07 10:34:28;;;;;;;4.53;2.47;;;22.70;98.30;;;;;;5026408;28;20877;-70
2022/07/07 10:37:09;;;;;;;2.73;2.40;;;22.50;98.90;;;;;;5026498;28;20202;-70
2022/07/07 10:39:46;;;;;;;3.13;2.30;;;22.40;99.00;;;;;;5026621;28;20925;-71
2022/07/07 10:42:17;;;;;;;2.33;2.13;;;22.40;98.90;;;;;;5026355;28;20467;-70
2022/07/07 10:44:44;;;;;;;3.73;2.30;;;22.50;98.80;;;;;;5034784;28;20444;-71
2022/07/07 10:47:12;;;;;;;2.73;1.80;;;22.30;99.40;;;;;;5046180;28;21009;-71
2022/07/07 10:49:46;;;;;;;2.53;1.93;;;22.30;98.90;;;;;;5046276;28;20495;-70
2022/07/07 10:52:12;;;;;;;2.63;2.13;;;22.40;98.80;;;;;;5046413;28;20410;-70
2022/07/07 10:54:41;;;;;;;2.03;1.80;;;22.50;98.60;;;;;;5046094;28;20421;-70
2022/07/07 10:57:14;;;;;;;2.30;2.10;;;22.50;98.50;;;;;;5037770;28;20488;-71
2022/07/07 11:00:04;;;;;;;2.90;2.40;;;22.50;98.50;;;;;;5026322;28;20418;-71
2022/07/07 11:02:47;;;;;;;2.77;2.57;;;22.60;98.80;;;;;;5026118;28;20402;-70
2022/07/07 11:05:13;;;;;;;3.00;2.23;;;22.60;98.50;;;;;;5028565;28;20422;-71
2022/07/07 11:07:39;;;;;;;2.57;2.10;;;22.70;98.70;;;;;;5045749;28;20444;-71
2022/07/07 11:10:11;;;;;;;3.70;2.43;;;22.40;98.70;;;;;;5045560;28;20418;-70
2022/07/07 11:12:52;;;;;;;4.07;2.40;;;22.00;99.60;;;;;;5045551;28;20420;-70
2022/07/07 11:15:18;;;;;;;3.07;2.30;;;21.80;99.60;;;;;;5033219;28;20410;-70
2022/07/07 11:17:56;;;;;;;7.80;2.93;;;21.60;99.90;;;;;;5025635;28;20985;-70
2022/07/07 11:20:27;;;;;;;3.20;2.30;;;21.60;99.90;;;;;;5036156;28;20470;-70
2022/07/07 11:23:04;;;;;;;2.77;2.57;;;21.60;99.90;;;;;;5045585;28;20464;-71
2022/07/07 11:25:30;;;;;;;2.30;2.03;;;21.80;99.90;;;;;;5045613;28;20415;-71
2022/07/07 11:27:57;;;;;;;6.33;2.17;;;21.90;99.90;;;;;;5032936;28;20446;-69
2022/07/07 11:30:24;;;;;;;2.90;2.00;;;21.90;99.90;;;;;;5025173;28;20195;-71
2022/07/07 11:32:50;;;;;;;2.87;2.00;;;21.80;99.90;;;;;;5012258;28;20580;-71
2022/07/07 11:35:16;;;;;;;4.87;2.10;;;22.00;99.90;;;;;;5040664;28;20405;-71
2022/07/07 11:37:46;;;;;;;2.30;2.10;;;22.10;99.90;;;;;;5045347;28;20432;-71
2022/07/07 11:40:12;;;;;;;2.30;2.10;;;22.30;99.80;;;;;;5045352;28;20535;-71
2022/07/07 11:42:38;;;;;;;3.00;2.30;;;22.20;99.90;;;;;;5045097;28;20416;-70
2022/07/07 11:45:05;;;;;;;6.40;2.60;;;22.20;99.90;;;;;;5041272;28;20185;-70
2022/07/07 11:47:34;;;;;;;3.17;2.83;;;22.00;99.70;;;;;;5045156;28;20437;-70
2022/07/07 11:50:00;;;;;;;3.43;2.50;;;21.90;99.60;;;;;;5041304;28;20457;-70
2022/07/07 11:52:25;;;;;;;3.13;2.10;;;21.60;99.90;;;;;;5023849;28;20508;-70
2022/07/07 11:54:51;;;;;;;2.97;2.70;;;21.60;99.90;;;;;;5025246;28;20179;-70
2022/07/07 11:57:30;;;;;;;3.23;2.20;;;21.50;99.90;;;;;;5027342;28;20667;-70
2022/07/07 12:00:16;;;;;;;2.50;2.30;;;21.50;99.90;;;;;;5037367;28;20198;-73
2022/07/07 12:02:42;;;;;;;4.57;2.70;;;21.70;99.90;;;;;;5025266;28;20409;-74
2022/07/07 12:05:08;;;;;;;8.27;2.43;;;21.90;99.50;;;;;;5033579;28;20478;-73
2022/07/07 12:07:34;;;;;;;5.33;2.43;;;22.00;99.10;;;;;;5044001;28;20433;-71
2022/07/07 12:10:00;;;;;;;3.13;2.27;;;21.90;99.30;;;;;;5044109;28;20463;-72
2022/07/07 12:12:25;;;;;;;3.20;2.70;;;22.00;99.30;;;;;;5044362;28;20679;-71
2022/07/07 12:14:51;;;;;;;3.87;2.80;;;21.90;99.10;;;;;;5044901;28;20265;-72
2022/07/07 12:17:34;;;;;;;2.30;2.03;;;22.10;99.20;;;;;;5044359;28;20199;-70
2022/07/07 12:20:00;;;;;;;3.93;2.40;;;22.20;98.80;;;;;;5044378;28;20193;-72
2022/07/07 12:22:36;;;;;;;3.37;2.93;;;22.10;98.90;;;;;;5044678;28;20413;-73
2022/07/07 12:25:08;;;;;;;3.53;2.53;;;22.20;99.10;;;;;;5044204;28;20183;-73
2022/07/07 12:27:34;;;;;;;3.67;2.37;;;22.30;99.10;;;;;;5035187;28;20469;-73
2022/07/07 12:30:02;;;;;;;4.70;2.73;;;22.50;98.50;;;;;;5030514;28;20933;-72
2022/07/07 12:32:28;;;;;;;2.33;2.10;;;22.30;98.50;;;;;;5037368;28;20187;-73
2022/07/07 12:34:54;;;;;;;2.80;2.50;;;22.20;99.20;;;;;;5024350;28;20861;-72
2022/07/07 12:37:19;;;;;;;3.07;2.10;;;22.10;98.70;;;;;;5023838;28;20512;-69
2022/07/07 12:39:50;;;;;;;3.90;2.03;;;22.10;99.20;;;;;;5024065;28;20659;-72
2022/07/07 12:42:25;;;;;;;4.77;2.10;;;22.20;99.00;;;;;;5024330;28;20183;-72
2022/07/07 12:44:50;;;;;;;3.93;2.90;;;22.30;99.00;;;;;;5028032;28;20929;-72
2022/07/07 12:47:17;;;;;;;3.83;2.20;;;22.30;98.70;;;;;;5028245;28;20446;-72
2022/07/07 12:49:54;;;;;;;7.60;2.30;;;22.20;99.00;;;;;;5024196;28;20707;-70
2022/07/07 12:52:20;;;;;;;7.03;2.60;;;22.10;99.00;;;;;;5023900;28;20413;-69